Aviation Digital Data Service (ADDS)

Output produced by METARs form (0628 UTC 23 August 2017)
found at http://aviationweather.gov/adds/metars/
 
METAR text: KCVH 230610Z AUTO 00000KT 10SM CLR 14/13 A3002 RMK AO1
Conditions at: KCVH (HOLLISTER MUNI , CA, US) observed 0610 UTC 23 August 2017
Temperature: 14.0°C (57°F)
Dewpoint: 13.0°C (55°F) [RH = 94%]
Pressure (altimeter): 30.02 inches Hg (1016.7 mb)
Winds: calm
Visibility: 10 or more miles (16+ km)
Ceiling: at least 12,000 feet AGL
Clouds: sky clear below 12,000 feet AGL
Weather: automated observation with no human augmentation;
there may or may not be significant weather present at this time